createdAt,value
2023-04-10T00:00:14.922Z,11.37
2023-04-10T00:02:44.460Z,11.38
2023-04-10T00:05:12.610Z,11.42
2023-04-10T00:07:40.400Z,11.46
2023-04-10T00:10:08.944Z,11.50
2023-04-10T00:12:47.579Z,11.51
2023-04-10T00:15:15.770Z,11.52
2023-04-10T00:17:43.175Z,11.53
2023-04-10T00:20:11.262Z,11.56
2023-04-10T00:22:43.470Z,11.59
2023-04-10T00:25:10.927Z,11.60
2023-04-10T00:27:41.207Z,11.61
2023-04-10T00:30:09.017Z,11.63
2023-04-10T00:32:56.649Z,11.63
2023-04-10T00:35:24.098Z,11.64
2023-04-10T00:37:52.134Z,11.64
2023-04-10T00:40:19.503Z,11.61
2023-04-10T00:42:47.536Z,11.57
2023-04-10T00:45:15.019Z,11.50
2023-04-10T00:47:47.146Z,11.46
2023-04-10T00:50:14.437Z,11.42
2023-04-10T00:52:42.204Z,11.33
2023-04-10T00:55:09.902Z,11.25
2023-04-10T00:57:37.416Z,11.17
2023-04-10T01:00:05.101Z,11.08
2023-04-10T01:02:36.118Z,10.93
2023-04-10T01:05:04.390Z,10.82
2023-04-10T01:07:43.834Z,10.73
2023-04-10T01:10:11.801Z,10.67
2023-04-10T01:13:08.948Z,10.67
2023-04-10T01:15:45.620Z,10.69
2023-04-10T01:18:19.004Z,10.70
2023-04-10T01:20:46.475Z,10.73
2023-04-10T01:23:32.977Z,10.72
2023-04-10T01:26:03.509Z,10.69
2023-04-10T01:28:42.740Z,10.68
2023-04-10T01:31:11.434Z,10.69
2023-04-10T01:33:52.489Z,10.70
2023-04-10T01:36:33.251Z,10.69
2023-04-10T01:39:00.667Z,10.67
2023-04-10T01:41:28.017Z,10.68
2023-04-10T01:43:57.074Z,10.68
2023-04-10T01:46:24.940Z,10.67
2023-04-10T01:48:58.175Z,10.65
2023-04-10T01:51:26.014Z,10.65
2023-04-10T01:53:53.575Z,10.67
2023-04-10T01:56:25.522Z,10.71
2023-04-10T01:58:52.871Z,10.75
2023-04-10T02:01:29.072Z,10.75
2023-04-10T02:03:58.345Z,10.72
2023-04-10T02:06:25.920Z,10.69
2023-04-10T02:09:09.117Z,10.68
2023-04-10T02:11:42.116Z,10.71
2023-04-10T02:14:14.496Z,10.76
2023-04-10T02:16:43.567Z,10.79
2023-04-10T02:19:12.366Z,10.77
2023-04-10T02:21:44.969Z,10.73
2023-04-10T02:24:13.002Z,10.71
2023-04-10T02:26:46.602Z,10.70
2023-04-10T02:29:21.158Z,10.70
2023-04-10T02:31:48.582Z,10.72
2023-04-10T02:34:16.244Z,10.75
2023-04-10T02:36:48.722Z,10.78
2023-04-10T02:39:16.586Z,10.79
2023-04-10T02:41:50.617Z,10.82
2023-04-10T02:44:17.986Z,10.86
2023-04-10T02:46:45.937Z,10.87
2023-04-10T02:49:14.194Z,10.86
2023-04-10T02:51:41.853Z,10.87
2023-04-10T02:54:09.928Z,10.86
2023-04-10T02:56:38.414Z,10.82
2023-04-10T02:59:06.583Z,10.78
2023-04-10T03:01:35.015Z,10.77
2023-04-10T03:04:03.941Z,10.79
2023-04-10T03:06:39.190Z,10.78
2023-04-10T03:09:07.581Z,10.76
2023-04-10T03:11:35.330Z,10.71
2023-04-10T03:14:04.174Z,10.68
2023-04-10T03:16:31.836Z,10.66
2023-04-10T03:18:59.854Z,10.67
2023-04-10T03:21:28.362Z,10.66
2023-04-10T03:23:56.187Z,10.67
2023-04-10T03:26:25.190Z,10.68
2023-04-10T03:28:54.015Z,10.71
2023-04-10T03:31:21.549Z,10.71
2023-04-10T03:33:50.094Z,10.67
2023-04-10T03:36:17.808Z,10.65
2023-04-10T03:38:45.251Z,10.64
2023-04-10T03:41:16.082Z,10.66
2023-04-10T03:43:44.865Z,10.70
2023-04-10T03:46:12.930Z,10.71
2023-04-10T03:48:42.849Z,10.71
2023-04-10T03:51:10.611Z,10.70
2023-04-10T03:53:39.094Z,10.62
2023-04-10T03:56:09.924Z,10.60
2023-04-10T03:58:38.423Z,10.64
2023-04-10T04:01:06.786Z,10.72
2023-04-10T04:03:50.891Z,10.80
2023-04-10T04:06:45.112Z,10.85
2023-04-10T04:09:26.496Z,10.81
2023-04-10T04:11:53.956Z,10.79
2023-04-10T04:14:44.170Z,10.82
2023-04-10T04:17:30.697Z,10.87
2023-04-10T04:20:21.406Z,10.91
2023-04-10T04:23:12.377Z,10.95
2023-04-10T04:26:06.540Z,10.99
2023-04-10T04:28:38.404Z,11.00
2023-04-10T04:31:32.248Z,11.01
2023-04-10T04:34:11.407Z,11.05
2023-04-10T04:36:48.802Z,11.10
2023-04-10T04:39:35.439Z,11.17
2023-04-10T04:42:11.871Z,11.27
2023-04-10T04:45:09.431Z,11.36
2023-04-10T04:48:10.378Z,11.47
2023-04-10T04:50:54.624Z,11.53
2023-04-10T04:53:54.446Z,11.56
2023-04-10T04:56:42.686Z,11.58
2023-04-10T04:59:30.734Z,11.60
2023-04-10T05:02:05.704Z,11.61
2023-04-10T05:04:42.633Z,11.62
2023-04-10T05:07:30.908Z,11.60
2023-04-10T05:10:20.553Z,11.63
2023-04-10T05:13:10.031Z,11.70
2023-04-10T05:15:48.828Z,11.75
2023-04-10T05:18:36.442Z,11.81
2023-04-10T05:21:24.515Z,11.87
2023-04-10T05:24:06.104Z,11.94
2023-04-10T05:27:00.899Z,12.04
2023-04-10T05:29:51.195Z,12.15
2023-04-10T05:32:49.482Z,12.25
2023-04-10T05:35:49.140Z,12.35
2023-04-10T05:38:38.666Z,12.45
2023-04-10T05:41:15.023Z,12.56
2023-04-10T05:44:06.474Z,12.68
2023-04-10T05:47:00.736Z,12.76
2023-04-10T05:49:40.177Z,12.78
2023-04-10T05:52:33.835Z,12.85
2023-04-10T05:55:13.378Z,12.97
2023-04-10T05:57:43.498Z,13.11
2023-04-10T06:00:31.227Z,13.24
2023-04-10T06:03:10.944Z,13.34
2023-04-10T06:05:47.237Z,13.48
2023-04-10T06:08:15.845Z,13.64
2023-04-10T06:10:48.442Z,13.77
2023-04-10T06:13:16.365Z,13.87
2023-04-10T06:15:49.364Z,13.96
2023-04-10T06:18:19.467Z,14.01
2023-04-10T06:20:48.881Z,14.00
2023-04-10T06:23:20.840Z,14.00
2023-04-10T06:25:49.310Z,13.99
2023-04-10T06:28:16.975Z,13.94
2023-04-10T06:30:46.710Z,13.94
2023-04-10T06:33:15.810Z,13.90
2023-04-10T06:35:45.001Z,13.87
2023-04-10T06:38:12.846Z,13.85
2023-04-10T06:40:40.816Z,13.86
2023-04-10T06:43:07.954Z,13.88
2023-04-10T06:45:40.239Z,13.90
2023-04-10T06:48:07.878Z,13.91
2023-04-10T06:50:36.497Z,13.90
2023-04-10T06:53:04.137Z,13.86
2023-04-10T06:55:31.911Z,13.82
2023-04-10T06:58:19.355Z,13.81
2023-04-10T07:00:48.537Z,13.86
2023-04-10T07:03:17.190Z,13.92
2023-04-10T07:05:44.561Z,13.95
2023-04-10T07:08:12.444Z,13.93
2023-04-10T07:10:41.322Z,13.95
2023-04-10T07:13:08.711Z,14.02
2023-04-10T07:15:41.558Z,14.11
2023-04-10T07:18:09.987Z,14.15
2023-04-10T07:20:37.848Z,14.19
2023-04-10T07:23:11.514Z,14.18
2023-04-10T07:25:40.908Z,14.22
2023-04-10T07:28:08.173Z,14.29
2023-04-10T07:30:38.405Z,14.39
2023-04-10T07:33:06.543Z,14.53
2023-04-10T07:35:34.985Z,14.65
2023-04-10T07:38:04.135Z,14.73
2023-04-10T07:40:31.541Z,14.82
2023-04-10T07:42:58.874Z,14.92
2023-04-10T07:55:20.201Z,15.24
2023-04-10T07:57:48.321Z,15.30
2023-04-10T08:00:20.013Z,15.37
2023-04-10T08:02:47.952Z,15.46
2023-04-10T08:05:15.602Z,15.51
2023-04-10T08:07:43.678Z,15.55
2023-04-10T08:10:11.339Z,15.58
2023-04-10T08:12:40.133Z,15.62
2023-04-10T08:15:07.805Z,15.61
2023-04-10T08:17:41.192Z,15.57
2023-04-10T08:20:10.724Z,15.56
2023-04-10T08:22:38.352Z,15.60
2023-04-10T08:25:11.835Z,15.65
2023-04-10T08:27:55.430Z,15.70
2023-04-10T08:30:24.278Z,15.73
2023-04-10T08:32:55.798Z,15.78
2023-04-10T08:35:26.457Z,15.85
2023-04-10T08:38:11.823Z,15.92
2023-04-10T08:40:41.278Z,16.00
2023-04-10T08:43:13.472Z,15.98
2023-04-10T08:45:44.082Z,15.97
2023-04-10T08:48:11.695Z,15.99
2023-04-10T08:50:42.897Z,16.01
2023-04-10T08:53:11.221Z,16.08
2023-04-10T08:55:43.734Z,16.17
2023-04-10T08:58:13.397Z,16.21
2023-04-10T09:00:40.832Z,16.26
2023-04-10T09:03:11.406Z,16.35
2023-04-10T09:05:39.452Z,16.43
2023-04-10T09:08:06.908Z,16.44
2023-04-10T09:10:35.361Z,16.39
2023-04-10T09:13:03.108Z,16.34
2023-04-10T09:15:30.700Z,16.39
2023-04-10T09:18:01.167Z,16.47
2023-04-10T09:20:29.903Z,16.59
2023-04-10T09:22:57.279Z,16.75
2023-04-10T09:25:35.915Z,16.87
2023-04-10T09:28:07.184Z,17.04
2023-04-10T09:30:39.616Z,17.23
2023-04-10T09:33:20.895Z,17.39
2023-04-10T09:35:48.518Z,17.52
2023-04-10T09:38:20.560Z,17.66
2023-04-10T09:40:54.957Z,17.79
2023-04-10T09:43:26.492Z,17.95
2023-04-10T09:45:57.233Z,18.10
2023-04-10T09:48:25.145Z,18.32
2023-04-10T09:50:52.552Z,18.59
2023-04-10T09:53:22.576Z,18.81
2023-04-10T09:55:50.558Z,19.02
2023-04-10T09:58:18.646Z,19.20
2023-04-10T10:00:47.225Z,19.25
2023-04-10T10:03:16.851Z,19.30
2023-04-10T10:05:48.356Z,19.40
2023-04-10T10:08:17.239Z,19.54
2023-04-10T10:10:47.380Z,19.68
2023-04-10T10:13:17.479Z,19.81
2023-04-10T10:15:52.029Z,19.91
2023-04-10T10:18:40.688Z,19.93
2023-04-10T10:21:08.928Z,20.08
2023-04-10T10:23:43.865Z,20.25
2023-04-10T10:26:11.522Z,20.29
2023-04-10T10:28:40.118Z,20.24
2023-04-10T10:31:08.161Z,20.24
2023-04-10T10:33:36.678Z,20.22
2023-04-10T10:36:04.422Z,20.25
2023-04-10T10:38:32.190Z,20.29
2023-04-10T10:41:10.636Z,20.37
2023-04-10T10:43:43.894Z,20.69
2023-04-10T10:46:12.706Z,21.02
2023-04-10T10:48:40.138Z,21.21
2023-04-10T10:51:08.416Z,21.35
2023-04-10T10:53:40.171Z,21.37
2023-04-10T10:56:19.433Z,21.58
2023-04-10T10:58:47.691Z,21.93
2023-04-10T11:01:15.295Z,22.31
2023-04-10T11:03:46.550Z,22.64
2023-04-10T11:06:16.494Z,22.99
2023-04-10T11:08:47.697Z,23.23
2023-04-10T11:11:21.248Z,23.51
2023-04-10T11:13:49.896Z,23.94
2023-04-10T11:16:17.937Z,24.38
2023-04-10T11:21:31.247Z,24.86
2023-04-10T11:24:03.455Z,24.98
2023-04-10T11:26:40.813Z,25.09
2023-04-10T11:29:17.343Z,24.99
2023-04-10T11:31:48.511Z,25.03
2023-04-10T11:34:16.030Z,25.11
2023-04-10T11:36:44.095Z,25.14
2023-04-10T11:39:19.995Z,25.20
2023-04-10T11:41:48.409Z,25.41
2023-04-10T11:44:20.744Z,25.67
2023-04-10T11:46:50.486Z,25.80
2023-04-10T11:49:18.371Z,25.75
2023-04-10T11:51:49.466Z,25.83
2023-04-10T11:54:18.249Z,25.99
2023-04-10T11:56:56.764Z,26.06
2023-04-10T11:59:24.736Z,26.09
2023-04-10T12:01:53.958Z,26.16
2023-04-10T12:04:21.982Z,26.10
2023-04-10T12:06:51.620Z,26.23
2023-04-10T12:09:20.194Z,26.47
2023-04-10T12:11:51.232Z,26.84
2023-04-10T12:14:20.429Z,27.11
2023-04-10T12:16:47.786Z,27.19
2023-04-10T12:19:23.226Z,27.19
2023-04-10T12:21:51.003Z,27.30
2023-04-10T12:24:40.200Z,27.26
2023-04-10T12:27:08.493Z,27.20
2023-04-10T12:29:35.789Z,27.14
2023-04-10T12:32:07.698Z,27.07
2023-04-10T12:34:38.520Z,27.13
2023-04-10T12:37:06.674Z,27.21
2023-04-10T12:39:34.951Z,27.24
2023-04-10T12:42:16.565Z,27.24
2023-04-10T12:44:54.747Z,27.29
2023-04-10T12:47:22.574Z,27.18
2023-04-10T12:50:07.891Z,27.06
2023-04-10T12:52:35.952Z,27.10
2023-04-10T12:55:10.987Z,27.04
2023-04-10T12:57:39.156Z,26.79
2023-04-10T13:00:09.176Z,26.74
2023-04-10T13:02:37.622Z,26.59
2023-04-10T13:05:05.928Z,26.44
2023-04-10T13:07:33.126Z,26.35
2023-04-10T13:10:01.145Z,26.11
2023-04-10T13:12:34.381Z,25.93
2023-04-10T13:15:02.526Z,25.82
2023-04-10T13:17:30.535Z,25.69
2023-04-10T13:19:58.244Z,25.42
2023-04-10T13:22:25.873Z,25.22
2023-04-10T13:24:53.260Z,24.99
2023-04-10T13:27:24.309Z,24.94
2023-04-10T13:29:51.972Z,24.98
2023-04-10T13:32:19.344Z,25.00
2023-04-10T13:34:47.890Z,24.99
2023-04-10T13:37:15.042Z,24.93
2023-04-10T13:39:43.224Z,24.90
2023-04-10T13:42:11.203Z,24.69
2023-04-10T13:44:38.447Z,24.39
2023-04-10T13:47:07.538Z,24.21
2023-04-10T13:49:37.024Z,23.96
2023-04-10T13:52:04.560Z,23.82
2023-04-10T13:54:31.950Z,23.72
2023-04-10T13:56:59.342Z,23.57
2023-04-10T13:59:27.380Z,23.42
2023-04-10T14:01:55.377Z,23.22
2023-04-10T14:04:23.314Z,23.03
2023-04-10T14:06:52.753Z,22.96
2023-04-10T14:09:20.891Z,22.98
2023-04-10T14:11:48.662Z,22.97
2023-04-10T14:14:16.117Z,23.02
2023-04-10T14:16:43.780Z,22.98
2023-04-10T14:19:11.431Z,22.81
2023-04-10T14:21:40.632Z,22.56
2023-04-10T14:24:07.984Z,22.36
2023-04-10T14:26:35.389Z,22.25
2023-04-10T14:29:04.442Z,22.10
2023-04-10T14:34:03.848Z,21.75
2023-04-10T14:36:32.431Z,21.51
2023-04-10T14:39:00.198Z,21.35
2023-04-10T14:41:28.571Z,21.17
2023-04-10T14:43:56.112Z,21.04
2023-04-10T14:46:25.155Z,20.97
2023-04-10T14:48:52.923Z,20.87
2023-04-10T14:51:24.034Z,20.77
2023-04-10T14:53:52.754Z,20.71
2023-04-10T14:56:21.136Z,20.58
2023-04-10T14:58:53.853Z,20.44
2023-04-10T15:01:21.240Z,20.29
2023-04-10T15:03:48.898Z,20.09
2023-04-10T15:06:16.659Z,19.81
2023-04-10T15:08:44.271Z,19.56
2023-04-10T15:11:11.785Z,19.35
2023-04-10T15:13:40.201Z,19.17
2023-04-10T15:16:08.044Z,19.01
2023-04-10T15:18:35.892Z,18.89
2023-04-10T15:21:04.410Z,18.74
2023-04-10T15:23:31.827Z,18.55
2023-04-10T15:25:59.487Z,18.42
2023-04-10T15:28:27.698Z,18.31
2023-04-10T15:30:55.880Z,18.19
2023-04-10T15:33:23.814Z,18.05
2023-04-10T15:35:51.625Z,17.90
2023-04-10T15:38:19.491Z,17.77
2023-04-10T15:40:47.280Z,17.64
2023-04-10T15:43:14.649Z,17.54
2023-04-10T15:45:46.053Z,17.45
2023-04-10T15:48:13.560Z,17.35
2023-04-10T15:50:43.848Z,17.25
2023-04-10T15:53:11.951Z,17.18
2023-04-10T15:55:40.255Z,17.13
2023-04-10T15:58:10.826Z,17.06
2023-04-10T16:00:40.571Z,17.01
2023-04-10T16:03:08.768Z,16.92
2023-04-10T16:05:38.166Z,16.83
2023-04-10T16:08:05.847Z,16.74
2023-04-10T16:10:33.375Z,16.67
2023-04-10T16:13:06.358Z,16.63
2023-04-10T16:15:34.362Z,16.58
2023-04-10T16:18:05.508Z,16.54
2023-04-10T16:20:33.231Z,16.49
2023-04-10T16:23:01.853Z,16.43
2023-04-10T16:25:30.908Z,16.39
2023-04-10T16:28:00.912Z,16.37
2023-04-10T16:30:29.298Z,16.34
2023-04-10T16:32:58.598Z,16.30
2023-04-10T16:35:27.170Z,16.26
2023-04-10T16:37:55.975Z,16.21
2023-04-10T16:40:27.219Z,16.18
2023-04-10T16:42:55.004Z,16.16
2023-04-10T16:45:22.334Z,16.14
2023-04-10T16:47:49.846Z,16.11
2023-04-10T16:50:17.760Z,16.08
2023-04-10T16:52:45.911Z,16.08
2023-04-10T16:55:13.591Z,16.06
2023-04-10T16:57:41.870Z,16.06
2023-04-10T17:00:09.837Z,16.05
2023-04-10T17:02:39.909Z,16.02
2023-04-10T17:05:07.526Z,15.98
2023-04-10T17:07:39.592Z,15.95
2023-04-10T17:10:07.855Z,15.92
2023-04-10T17:12:36.007Z,15.92
2023-04-10T17:15:11.169Z,15.91
2023-04-10T17:17:40.266Z,15.89
2023-04-10T17:20:09.467Z,15.87
2023-04-10T17:22:38.388Z,15.84
2023-04-10T17:25:08.214Z,15.79
2023-04-10T17:27:37.799Z,15.75
2023-04-10T17:30:10.595Z,15.72
2023-04-10T17:32:43.443Z,15.68
2023-04-10T17:35:10.825Z,15.63
2023-04-10T17:37:41.387Z,15.59
2023-04-10T17:40:13.803Z,15.54
2023-04-10T17:42:44.377Z,15.48
2023-04-10T17:45:16.661Z,15.43
2023-04-10T17:48:06.584Z,15.39
2023-04-10T17:50:34.751Z,15.36
2023-04-10T17:53:02.207Z,15.33
2023-04-10T17:55:39.591Z,15.30
2023-04-10T17:58:07.202Z,15.27
2023-04-10T18:00:35.022Z,15.24
2023-04-10T18:03:05.619Z,15.23
2023-04-10T18:05:43.545Z,15.23
2023-04-10T18:08:11.139Z,15.22
2023-04-10T18:10:38.766Z,15.18
2023-04-10T18:13:10.116Z,15.16
2023-04-10T18:15:37.775Z,15.14
2023-04-10T18:18:05.329Z,15.11
2023-04-10T18:20:33.084Z,15.08
2023-04-10T18:23:01.558Z,15.03
2023-04-10T18:25:30.235Z,14.99
2023-04-10T18:28:13.889Z,14.95
2023-04-10T18:30:43.850Z,14.91
2023-04-10T18:33:12.491Z,14.86
2023-04-10T18:35:42.216Z,14.80
2023-04-10T18:38:09.783Z,14.77
2023-04-10T18:40:37.951Z,14.76
2023-04-10T18:43:05.525Z,14.75
2023-04-10T18:45:34.533Z,14.71
2023-04-10T18:48:03.815Z,14.66
2023-04-10T18:50:36.478Z,14.61
2023-04-10T18:53:10.696Z,14.56
2023-04-10T18:55:39.071Z,14.53
2023-04-10T18:58:06.641Z,14.49
2023-04-10T19:00:35.520Z,14.46
2023-04-10T19:03:04.350Z,14.43
2023-04-10T19:05:33.523Z,14.39
2023-04-10T19:08:04.239Z,14.36
2023-04-10T19:10:33.333Z,14.32
2023-04-10T19:13:05.703Z,14.29
2023-04-10T19:15:39.427Z,14.23
2023-04-10T19:18:07.208Z,14.17
2023-04-10T19:20:49.231Z,14.13
2023-04-10T19:23:19.271Z,14.09
2023-04-10T19:25:46.979Z,14.05
2023-04-10T19:28:14.437Z,14.00
2023-04-10T19:31:01.826Z,13.95
2023-04-10T19:33:30.016Z,13.91
2023-04-10T19:35:58.631Z,13.86
2023-04-10T19:38:26.957Z,13.84
2023-04-10T19:40:54.417Z,13.80
2023-04-10T19:43:22.198Z,13.75
2023-04-10T19:45:50.084Z,13.71
2023-04-10T19:48:17.094Z,13.66
2023-04-10T19:50:45.682Z,13.60
2023-04-10T19:53:15.083Z,13.57
2023-04-10T19:55:43.668Z,13.54
2023-04-10T19:58:30.063Z,13.52
2023-04-10T20:01:02.641Z,13.47
2023-04-10T20:03:33.245Z,13.43
2023-04-10T20:06:01.855Z,13.40
2023-04-10T20:08:30.231Z,13.37
2023-04-10T20:10:58.495Z,13.34
2023-04-10T20:13:25.965Z,13.30
2023-04-10T20:15:53.540Z,13.27
2023-04-10T20:18:21.812Z,13.26
2023-04-10T20:20:49.152Z,13.24
2023-04-10T20:23:20.704Z,13.24
2023-04-10T20:25:48.604Z,13.23
2023-04-10T20:28:19.093Z,13.22
2023-04-10T20:30:51.271Z,13.19
2023-04-10T20:33:20.339Z,13.15
2023-04-10T20:35:47.845Z,13.12
2023-04-10T20:38:17.321Z,13.09
2023-04-10T20:40:45.084Z,13.06
2023-04-10T20:43:18.164Z,13.03
2023-04-10T20:45:45.834Z,13.00
2023-04-10T20:48:13.244Z,12.96
2023-04-10T20:50:42.488Z,12.89
2023-04-10T20:53:09.660Z,12.84
2023-04-10T20:55:37.915Z,12.80
2023-04-10T20:58:05.713Z,12.75
2023-04-10T21:00:34.876Z,12.70
2023-04-10T21:03:03.284Z,12.65
2023-04-10T21:05:31.853Z,12.60
2023-04-10T21:08:00.010Z,12.56
2023-04-10T21:10:27.980Z,12.52
2023-04-10T21:12:55.552Z,12.51
2023-04-10T21:15:24.199Z,12.51
2023-04-10T21:17:51.728Z,12.51
2023-04-10T21:20:19.086Z,12.50
2023-04-10T21:22:47.211Z,12.46
2023-04-10T21:25:14.769Z,12.43
2023-04-10T21:27:47.185Z,12.40
2023-04-10T21:30:14.907Z,12.38
2023-04-10T21:32:42.685Z,12.36
2023-04-10T21:35:10.566Z,12.35
2023-04-10T21:37:37.921Z,12.32
2023-04-10T21:40:06.727Z,12.31
2023-04-10T21:42:36.435Z,12.30
2023-04-10T21:45:05.275Z,12.29
2023-04-10T21:47:33.354Z,12.24
2023-04-10T21:50:00.972Z,12.20
2023-04-10T21:52:28.262Z,12.16
2023-04-10T21:54:56.789Z,12.13
2023-04-10T21:57:24.402Z,12.07
2023-04-10T21:59:52.636Z,12.02
2023-04-10T22:02:20.418Z,11.97
2023-04-10T22:04:53.979Z,11.92
2023-04-10T22:07:22.111Z,11.86
2023-04-10T22:09:49.923Z,11.81
2023-04-10T22:12:17.230Z,11.74
2023-04-10T22:14:45.815Z,11.68
2023-04-10T22:17:13.372Z,11.64
2023-04-10T22:19:40.967Z,11.61
2023-04-10T22:22:09.345Z,11.56
2023-04-10T22:24:36.780Z,11.51
2023-04-10T22:27:04.244Z,11.47
2023-04-10T22:29:32.911Z,11.44
2023-04-10T22:32:00.366Z,11.43
2023-04-10T22:34:27.823Z,11.42
2023-04-10T22:36:55.793Z,11.38
2023-04-10T22:39:23.054Z,11.36
2023-04-10T22:41:50.711Z,11.33
2023-04-10T22:44:18.172Z,11.34
2023-04-10T22:46:49.174Z,11.36
2023-04-10T22:49:16.824Z,11.38
2023-04-10T22:51:46.690Z,11.42
2023-04-10T22:54:15.796Z,11.45
2023-04-10T22:56:43.846Z,11.50
2023-04-10T22:59:12.012Z,11.53
2023-04-10T23:01:40.037Z,11.56
2023-04-10T23:04:07.618Z,11.58
2023-04-10T23:06:36.126Z,11.59
2023-04-10T23:09:03.479Z,11.59
2023-04-10T23:11:37.593Z,11.58
2023-04-10T23:14:05.581Z,11.54
2023-04-10T23:16:33.216Z,11.51
2023-04-10T23:19:00.787Z,11.47
2023-04-10T23:21:29.166Z,11.42
2023-04-10T23:23:56.580Z,11.38
2023-04-10T23:26:23.914Z,11.33
2023-04-10T23:28:51.130Z,11.29
2023-04-10T23:31:18.921Z,11.25
2023-04-10T23:33:46.564Z,11.22
2023-04-10T23:36:14.036Z,11.18
2023-04-10T23:38:41.930Z,11.15
2023-04-10T23:41:10.758Z,11.12
2023-04-10T23:43:40.778Z,11.08
2023-04-10T23:46:08.094Z,11.06
2023-04-10T23:48:36.716Z,11.02
2023-04-10T23:51:07.736Z,10.97
2023-04-10T23:53:35.189Z,10.94
2023-04-10T23:56:07.414Z,10.91
2023-04-10T23:58:34.584Z,10.88
